Time;durP1;ratioP1;P1;durP2;ratioP2;P2;SDS_P1;SDS_P2;PMS_P1;PMS_P2;Temp;Humidity;BMP_temperature;BMP_pressure;BME280_temperature;BME280_humidity;BME280_pressure;Samples;Min_cycle;Max_cycle;Signal;HPM_P1;HPM_P2
2021/01/17 03:55:14;;;;;;;17.42;9.18;;;-3.00;97.70;;;;;;6207974;22;20025;-78
2021/01/17 03:57:39;;;;;;;15.48;8.15;;;-3.00;97.80;;;;;;6186833;23;20005;-78
2021/01/17 04:00:06;;;;;;;16.02;8.15;;;-3.00;98.10;;;;;;6159618;23;20318;-79
2021/01/17 04:02:33;;;;;;;16.42;9.18;;;-3.00;98.20;;;;;;6184475;23;20072;-77
2021/01/17 04:04:58;;;;;;;14.63;8.02;;;-3.10;98.00;;;;;;6186011;23;20009;-79
2021/01/17 04:07:24;;;;;;;17.27;7.93;;;-3.20;98.50;;;;;;6187605;23;20059;-78
2021/01/17 04:09:49;;;;;;;14.40;8.40;;;-3.20;98.80;;;;;;6161246;23;20029;-79
2021/01/17 04:12:15;;;;;;;18.77;9.30;;;-3.10;99.10;;;;;;6160088;23;20336;-78
2021/01/17 04:14:41;;;;;;;16.88;9.18;;;-3.10;99.20;;;;;;6185902;23;20005;-80
2021/01/17 04:17:06;;;;;;;15.90;7.25;;;-3.10;99.10;;;;;;6159995;23;20028;-79
2021/01/17 04:19:32;;;;;;;14.82;8.10;;;-3.10;99.40;;;;;;6187821;23;20005;-80
2021/01/17 04:21:57;;;;;;;12.00;6.90;;;-3.00;99.40;;;;;;6187831;23;20005;-78
2021/01/17 04:24:23;;;;;;;13.40;7.63;;;-3.00;99.60;;;;;;6189650;23;20318;-80
2021/01/17 04:26:56;;;;;;;12.68;7.40;;;-3.00;99.50;;;;;;6162757;23;20005;-79
2021/01/17 04:29:21;;;;;;;15.90;8.52;;;-3.00;99.40;;;;;;6186818;23;20055;-78
2021/01/17 04:31:47;;;;;;;14.02;7.38;;;-3.00;99.60;;;;;;6160000;23;20001;-80
2021/01/17 04:34:13;;;;;;;15.43;8.05;;;-3.00;99.50;;;;;;6186289;23;20006;-78
2021/01/17 04:36:38;;;;;;;14.68;7.57;;;-3.00;99.80;;;;;;6185977;23;20127;-78
2021/01/17 04:39:05;;;;;;;15.20;7.53;;;-3.10;99.90;;;;;;6160092;23;20075;-78
2021/01/17 04:41:34;;;;;;;12.00;6.80;;;-3.00;99.90;;;;;;6186475;23;19997;-78
2021/01/17 04:44:04;;;;;;;14.10;6.75;;;-3.00;99.90;;;;;;6158994;23;20037;-80
2021/01/17 04:46:31;;;;;;;14.10;7.57;;;-3.00;99.90;;;;;;6186532;23;20059;-79
2021/01/17 04:49:03;;;;;;;12.55;6.82;;;-3.00;99.90;;;;;;6159887;23;20016;-78
2021/01/17 04:51:29;;;;;;;10.75;5.57;;;-3.00;99.90;;;;;;6160457;23;20009;-80
2021/01/17 04:53:59;;;;;;;13.43;6.88;;;-3.00;99.90;;;;;;6161454;23;20001;-79
2021/01/17 04:56:45;;;;;;;15.07;7.38;;;-2.90;99.90;;;;;;6187095;23;20429;-79
2021/01/17 04:59:15;;;;;;;16.85;8.25;;;-2.90;99.90;;;;;;6162733;23;20024;-78
2021/01/17 05:01:46;;;;;;;13.18;6.85;;;-3.00;99.90;;;;;;6160396;23;20084;-79
2021/01/17 05:04:34;;;;;;;13.23;7.33;;;-2.90;99.90;;;;;;6159564;23;20005;-80
2021/01/17 05:07:04;;;;;;;12.25;6.35;;;-2.90;99.90;;;;;;6184267;23;20236;-78
2021/01/17 05:09:31;;;;;;;14.00;7.88;;;-3.00;99.90;;;;;;6159756;23;20016;-79
2021/01/17 05:12:11;;;;;;;11.63;6.85;;;-2.90;99.90;;;;;;6159139;23;20005;-78
2021/01/17 05:14:43;;;;;;;14.05;6.93;;;-2.90;99.90;;;;;;6186485;23;20001;-78
2021/01/17 05:17:10;;;;;;;14.40;7.85;;;-2.90;99.90;;;;;;6160372;23;20005;-79
2021/01/17 05:19:38;;;;;;;12.50;7.10;;;-2.90;99.90;;;;;;6186618;23;20020;-79
2021/01/17 05:22:05;;;;;;;12.65;6.45;;;-2.90;99.90;;;;;;6206927;23;20024;-80
2021/01/17 05:24:31;;;;;;;13.88;7.35;;;-2.90;99.90;;;;;;6202785;23;20425;-82
2021/01/17 05:26:59;;;;;;;12.57;6.03;;;-2.80;99.90;;;;;;6181069;23;20024;-81
2021/01/17 05:29:30;;;;;;;12.15;6.63;;;-2.90;99.90;;;;;;6183257;23;20017;-83
2021/01/17 05:31:56;;;;;;;12.30;6.53;;;-2.90;99.90;;;;;;6168820;23;20096;-80
2021/01/17 05:34:22;;;;;;;13.02;7.68;;;-2.90;99.90;;;;;;6190024;23;20429;-81
2021/01/17 05:37:00;;;;;;;14.07;7.03;;;-2.90;99.90;;;;;;6188868;23;20008;-80
2021/01/17 05:39:25;;;;;;;11.73;5.72;;;-2.90;99.90;;;;;;6162394;23;20366;-80
2021/01/17 05:41:51;;;;;;;12.73;6.28;;;-2.90;99.90;;;;;;6189228;23;20016;-79
2021/01/17 05:44:29;;;;;;;12.85;6.18;;;-2.90;99.90;;;;;;6187795;23;20056;-81
2021/01/17 05:47:07;;;;;;;10.15;5.82;;;-2.90;99.90;;;;;;6187574;23;20053;-81
2021/01/17 05:49:32;;;;;;;11.98;6.03;;;-2.90;99.90;;;;;;6187460;23;20008;-78
2021/01/17 05:52:14;;;;;;;10.27;6.05;;;-2.90;99.90;;;;;;6159769;23;20005;-83
2021/01/17 05:54:42;;;;;;;9.73;5.28;;;-2.90;99.90;;;;;;6190230;23;20031;-80
2021/01/17 05:57:12;;;;;;;10.27;5.40;;;-2.90;99.90;;;;;;6192839;23;19997;-79
2021/01/17 05:59:38;;;;;;;12.13;5.97;;;-2.90;99.90;;;;;;6192964;23;20005;-80
2021/01/17 06:02:12;;;;;;;10.40;6.10;;;-2.80;99.90;;;;;;6189859;23;20040;-80
2021/01/17 06:04:40;;;;;;;9.93;5.32;;;-2.80;99.90;;;;;;6162311;23;20020;-80
2021/01/17 06:07:08;;;;;;;9.20;5.13;;;-2.80;99.90;;;;;;6188269;23;20428;-80
2021/01/17 06:09:37;;;;;;;8.20;4.88;;;-2.80;99.90;;;;;;6161169;23;20164;-79
2021/01/17 06:12:04;;;;;;;8.55;5.38;;;-2.80;99.90;;;;;;6161407;23;20001;-80
2021/01/17 06:14:29;;;;;;;12.90;6.60;;;-2.80;99.90;;;;;;6187244;23;20015;-80
2021/01/17 06:17:00;;;;;;;9.77;6.05;;;-2.70;99.90;;;;;;6160245;23;20053;-79
2021/01/17 06:19:37;;;;;;;11.75;6.00;;;-2.70;99.90;;;;;;6186998;23;20008;-80
2021/01/17 06:22:08;;;;;;;10.05;6.55;;;-2.80;99.90;;;;;;6160504;23;20088;-81
2021/01/17 06:24:37;;;;;;;12.57;6.72;;;-2.80;99.90;;;;;;6187440;23;20466;-80
2021/01/17 06:27:05;;;;;;;12.35;6.80;;;-2.80;99.90;;;;;;6186510;23;20332;-80
2021/01/17 06:29:38;;;;;;;12.13;5.55;;;-2.80;99.90;;;;;;6187757;23;20012;-80
2021/01/17 06:32:19;;;;;;;8.23;4.95;;;-2.80;99.90;;;;;;6159655;23;20016;-80
2021/01/17 06:34:49;;;;;;;8.70;5.35;;;-2.70;99.90;;;;;;6186439;23;20013;-80
2021/01/17 06:37:16;;;;;;;10.57;6.45;;;-2.50;99.90;;;;;;6187154;23;19997;-79
2021/01/17 06:39:44;;;;;;;10.88;6.30;;;-2.50;99.90;;;;;;6185682;23;20301;-78
2021/01/17 06:42:12;;;;;;;10.20;6.10;;;-2.50;99.90;;;;;;6158661;23;20064;-78
2021/01/17 06:44:38;;;;;;;10.80;6.13;;;-2.50;99.90;;;;;;6185375;23;20008;-80
2021/01/17 06:47:04;;;;;;;8.18;5.10;;;-2.50;99.90;;;;;;6185691;23;20005;-80
2021/01/17 06:49:35;;;;;;;9.05;5.45;;;-2.60;99.90;;;;;;6160947;23;20467;-82
2021/01/17 06:52:05;;;;;;;12.25;5.60;;;-2.60;99.90;;;;;;6187141;23;20129;-80
2021/01/17 06:54:40;;;;;;;10.73;6.65;;;-2.60;99.90;;;;;;6162538;23;20079;-81
2021/01/17 06:57:07;;;;;;;12.80;6.03;;;-2.60;99.90;;;;;;6161345;23;20009;-80
2021/01/17 06:59:40;;;;;;;13.43;7.00;;;-2.50;99.90;;;;;;6163581;23;20036;-85
2021/01/17 07:02:12;;;;;;;9.60;5.15;;;-2.60;99.90;;;;;;6193870;23;20005;-82
2021/01/17 07:04:41;;;;;;;10.23;5.43;;;-2.60;99.90;;;;;;6198125;23;20041;-81
2021/01/17 07:07:25;;;;;;;8.55;4.97;;;-2.50;99.90;;;;;;6175123;23;20467;-82
2021/01/17 07:10:00;;;;;;;7.78;4.47;;;-2.50;99.90;;;;;;6201128;23;20005;-81
2021/01/17 07:12:58;;;;;;;9.05;4.95;;;-2.50;99.90;;;;;;6175192;23;20007;-80
2021/01/17 07:15:25;;;;;;;6.55;4.00;;;-2.50;99.90;;;;;;6175113;23;20005;-81
2021/01/17 07:18:01;;;;;;;9.00;5.00;;;-2.50;99.90;;;;;;6176827;23;20005;-81
2021/01/17 07:20:35;;;;;;;9.40;4.72;;;-2.40;99.90;;;;;;6167571;23;20005;-79
2021/01/17 07:23:02;;;;;;;8.13;4.97;;;-2.40;99.90;;;;;;6168736;23;19992;-80
2021/01/17 07:25:29;;;;;;;9.05;5.57;;;-2.40;99.90;;;;;;6194301;23;20088;-81
2021/01/17 07:28:12;;;;;;;9.40;4.80;;;-2.40;99.90;;;;;;6193598;23;20162;-80
2021/01/17 07:30:52;;;;;;;;;;;-2.30;99.90;;;;;;6167439;23;20405;-80
2021/01/17 07:33:27;;;;;;;8.98;5.45;;;-2.30;99.90;;;;;;6167821;23;19975;-81
2021/01/17 07:35:55;;;;;;;12.40;5.53;;;-2.30;99.90;;;;;;6167550;23;20005;-80
2021/01/17 07:38:22;;;;;;;10.45;5.43;;;-2.20;99.90;;;;;;6167816;23;20012;-80
2021/01/17 07:40:54;;;;;;;9.75;4.68;;;-2.10;99.90;;;;;;6167458;23;20005;-81
2021/01/17 07:43:28;;;;;;;10.27;5.72;;;-2.10;99.90;;;;;;6169602;23;20087;-80
2021/01/17 07:45:56;;;;;;;10.38;5.03;;;-2.00;99.90;;;;;;6167943;23;20055;-81
2021/01/17 07:48:23;;;;;;;8.30;4.85;;;-2.00;99.90;;;;;;6175094;23;20032;-81
2021/01/17 07:50:56;;;;;;;9.18;4.85;;;-1.90;99.90;;;;;;6174315;23;20009;-81
2021/01/17 07:53:39;;;;;;;8.60;4.28;;;-1.90;99.90;;;;;;6199731;23;20043;-81
2021/01/17 07:56:12;;;;;;;;;;;-1.80;99.90;;;;;;6170831;23;20019;-81
2021/01/17 07:58:40;;;;;;;;;;;-1.80;99.90;;;;;;6168380;23;20186;-80
2021/01/17 08:01:35;;;;;;;7.82;4.45;;;-1.70;99.90;;;;;;6168450;23;19907;-81
2021/01/17 08:04:03;;;;;;;6.85;3.97;;;-1.60;99.90;;;;;;6165649;23;20035;-81
2021/01/17 08:06:35;;;;;;;8.00;4.88;;;-1.50;99.90;;;;;;6167529;23;20009;-81
2021/01/17 08:09:08;;;;;;;7.78;4.10;;;-1.60;99.90;;;;;;6167181;23;20009;-82
2021/01/17 08:11:46;;;;;;;;;;;-1.60;99.90;;;;;;6169831;23;20083;-80
2021/01/17 08:14:42;;;;;;;10.43;4.50;;;-1.60;99.90;;;;;;6168263;23;20039;-81
2021/01/17 08:17:16;;;;;;;7.10;3.92;;;-1.50;99.90;;;;;;6167703;23;20005;-83
2021/01/17 08:19:43;;;;;;;6.78;4.25;;;-1.40;99.90;;;;;;6168711;23;20321;-84
2021/01/17 08:22:18;;;;;;;16.30;8.95;;;;;;;;;;6166874;23;20005;-82
2021/01/17 08:24:44;;;;;;;11.57;6.65;;;-1.20;99.90;;;;;;6190516;23;20029;-82
2021/01/17 08:27:31;;;;;;;11.10;6.63;;;-1.20;99.90;;;;;;6192199;23;20012;-80
2021/01/17 08:30:03;;;;;;;9.35;4.70;;;-1.10;99.90;;;;;;6165611;23;20444;-82
2021/01/17 08:32:40;;;;;;;6.80;4.85;;;-1.10;99.90;;;;;;6166377;23;20095;-82
2021/01/17 08:35:18;;;;;;;8.88;4.75;;;-1.00;99.90;;;;;;6195824;23;20048;-82
2021/01/17 08:37:51;;;;;;;7.15;4.50;;;-0.80;99.90;;;;;;6171921;23;20001;-82
2021/01/17 08:40:19;;;;;;;8.05;4.55;;;-0.80;99.90;;;;;;6171656;23;20005;-82
2021/01/17 08:42:52;;;;;;;7.43;4.68;;;-0.70;99.70;;;;;;6171834;23;20126;-82
2021/01/17 08:45:21;;;;;;;6.25;3.65;;;-0.70;99.90;;;;;;6171165;23;20027;-82
2021/01/17 08:47:58;;;;;;;8.93;4.68;;;-0.70;99.80;;;;;;6171180;23;20009;-82
2021/01/17 08:50:30;;;;;;;9.07;6.05;;;-0.60;99.50;;;;;;6173166;23;20015;-82
2021/01/17 08:53:14;;;;;;;13.90;5.10;;;-0.60;99.90;;;;;;6172466;23;20012;-81
2021/01/17 08:55:41;;;;;;;8.95;5.15;;;-0.50;99.70;;;;;;6200984;23;20005;-82
2021/01/17 08:58:08;;;;;;;9.38;5.53;;;-0.40;99.70;;;;;;6200903;23;20001;-82
2021/01/17 09:01:04;;;;;;;10.90;5.55;;;-0.50;99.10;;;;;;6174311;23;20468;-82
2021/01/17 09:03:35;;;;;;;13.27;6.53;;;-0.40;99.40;;;;;;6156648;23;20024;-82
2021/01/17 09:06:25;;;;;;;10.77;6.35;;;-0.40;98.60;;;;;;6178094;23;20005;-82
2021/01/17 09:08:53;;;;;;;13.88;8.00;;;-0.30;98.30;;;;;;6191285;23;20005;-82
2021/01/17 09:11:28;;;;;;;15.00;8.55;;;-0.30;98.10;;;;;;6174222;23;20016;-83
2021/01/17 09:14:10;;;;;;;15.23;8.35;;;-0.40;98.20;;;;;;6174367;23;19997;-82
2021/01/17 09:16:43;;;;;;;14.70;8.15;;;-0.40;97.80;;;;;;6174486;23;20018;-82
2021/01/17 09:19:09;;;;;;;18.83;10.15;;;-0.40;98.30;;;;;;6174547;23;20009;-82
2021/01/17 09:21:38;;;;;;;18.48;10.55;;;-0.30;97.50;;;;;;6175105;23;20112;-82
2021/01/17 09:24:12;;;;;;;22.83;10.85;;;-0.30;98.00;;;;;;6173977;23;20032;-82
2021/01/17 09:26:59;;;;;;;19.92;11.00;;;-0.30;97.60;;;;;;6174763;23;20012;-82
2021/01/17 09:29:35;;;;;;;18.55;10.10;;;-0.30;97.50;;;;;;6173485;23;20016;-82
2021/01/17 09:32:02;;;;;;;24.35;11.20;;;-0.40;97.90;;;;;;6174576;23;20028;-82
2021/01/17 09:34:34;;;;;;;24.48;12.38;;;-0.40;97.50;;;;;;6172510;23;20230;-81
2021/01/17 09:37:01;;;;;;;23.73;12.10;;;-0.40;98.00;;;;;;6172072;23;20005;-82
2021/01/17 09:39:27;;;;;;;25.58;12.20;;;-0.30;97.10;;;;;;6172065;23;20005;-82
2021/01/17 09:41:53;;;;;;;22.27;12.23;;;-0.30;97.10;;;;;;6175770;23;20041;-82
2021/01/17 09:44:19;;;;;;;24.05;12.63;;;-0.20;96.70;;;;;;6172339;23;20289;-82
2021/01/17 09:46:47;;;;;;;23.83;13.90;;;-0.10;96.70;;;;;;6166385;23;20344;-81
2021/01/17 09:49:13;;;;;;;23.42;12.75;;;-0.10;97.20;;;;;;6193304;23;20072;-80
2021/01/17 09:51:45;;;;;;;21.85;11.85;;;0.00;97.40;;;;;;6172863;23;20111;-81
2021/01/17 09:54:10;;;;;;;23.05;12.25;;;0.10;96.10;;;;;;6173552;23;20001;-83
2021/01/17 09:56:40;;;;;;;25.92;13.25;;;0.20;95.40;;;;;;6202043;23;20015;-80
2021/01/17 09:59:11;;;;;;;25.90;13.25;;;0.30;94.40;;;;;;6171006;23;20452;-82
2021/01/17 10:01:37;;;;;;;26.52;13.50;;;0.10;94.50;;;;;;6188160;23;20008;-82
2021/01/17 10:04:03;;;;;;;29.35;15.20;;;0.10;95.00;;;;;;6163489;23;20001;-81
2021/01/17 10:06:33;;;;;;;27.08;13.50;;;0.00;95.40;;;;;;6189753;23;20039;-81
2021/01/17 10:09:00;;;;;;;25.67;13.93;;;;;;;;;;6189676;23;20020;-82
2021/01/17 10:11:25;;;;;;;25.70;13.57;;;0.00;94.40;;;;;;6163227;23;20001;-82
2021/01/17 10:13:51;;;;;;;25.60;13.10;;;-0.10;94.90;;;;;;6164019;23;20028;-80
2021/01/17 10:16:26;;;;;;;27.60;13.40;;;-0.10;95.60;;;;;;6190342;23;20453;-82
2021/01/17 10:18:51;;;;;;;25.10;12.02;;;-0.10;95.40;;;;;;6163887;23;20001;-81
2021/01/17 10:21:20;;;;;;;26.40;13.80;;;-0.10;95.20;;;;;;6166640;23;20008;-81
2021/01/17 10:23:53;;;;;;;23.73;12.50;;;-0.10;95.00;;;;;;6164842;23;20091;-81
2021/01/17 10:26:23;;;;;;;25.85;12.88;;;-0.20;94.80;;;;;;6192431;23;20012;-81
2021/01/17 10:28:53;;;;;;;28.30;15.20;;;-0.20;95.00;;;;;;6164808;23;20005;-81
2021/01/17 10:31:27;;;;;;;24.95;13.88;;;-0.20;95.10;;;;;;6190691;23;20032;-82
2021/01/17 10:33:56;;;;;;;34.85;15.52;;;-0.10;95.00;;;;;;6165026;23;20001;-82
2021/01/17 10:36:24;;;;;;;25.80;14.32;;;-0.10;95.80;;;;;;6165196;23;20008;-80
2021/01/17 10:38:53;;;;;;;26.15;14.18;;;-0.10;95.80;;;;;;6164693;23;20052;-81
2021/01/17 10:41:27;;;;;;;28.15;14.23;;;0.00;95.20;;;;;;6165569;23;20003;-81
2021/01/17 10:44:07;;;;;;;25.75;13.60;;;0.00;95.30;;;;;;6190954;23;20370;-82
2021/01/17 10:46:37;;;;;;;29.98;15.95;;;-0.10;95.30;;;;;;6164586;23;19997;-83
2021/01/17 10:49:11;;;;;;;28.38;14.88;;;-0.10;95.60;;;;;;6164485;23;20005;-82
2021/01/17 10:51:42;;;;;;;32.58;16.00;;;-0.20;96.30;;;;;;6164653;23;20024;-84
2021/01/17 10:54:12;;;;;;;28.55;14.65;;;-0.20;96.60;;;;;;6191243;23;20061;-83
2021/01/17 10:56:39;;;;;;;29.23;15.27;;;-0.20;96.00;;;;;;6165615;23;20068;-81
2021/01/17 10:59:11;;;;;;;31.08;16.27;;;-0.30;96.50;;;;;;6165011;23;20045;-81
2021/01/17 11:01:37;;;;;;;33.05;16.55;;;-0.30;96.60;;;;;;6164617;23;20005;-81
2021/01/17 11:04:14;;;;;;;33.05;16.55;;;-0.30;97.30;;;;;;6163820;23;20005;-81
2021/01/17 11:06:45;;;;;;;33.22;16.23;;;-0.20;97.10;;;;;;6164850;23;20008;-81
2021/01/17 11:09:16;;;;;;;31.02;15.93;;;-0.20;97.00;;;;;;6163433;23;20009;-80
2021/01/17 11:11:47;;;;;;;31.02;15.98;;;-0.10;97.00;;;;;;6164404;23;20056;-80
2021/01/17 11:14:13;;;;;;;30.15;15.68;;;-0.10;96.70;;;;;;6163215;23;20001;-81
2021/01/17 11:16:44;;;;;;;30.70;16.20;;;-0.10;97.20;;;;;;6191517;23;20322;-81
2021/01/17 11:19:14;;;;;;;28.67;15.35;;;0.00;97.20;;;;;;6192402;23;19997;-83
2021/01/17 11:21:43;;;;;;;35.50;16.05;;;0.10;97.30;;;;;;6192786;23;19997;-80
2021/01/17 11:24:12;;;;;;;31.58;16.77;;;0.20;96.60;;;;;;6164275;23;20005;-80
2021/01/17 11:26:39;;;;;;;45.70;22.95;;;0.30;96.00;;;;;;6168439;23;20078;-82
2021/01/17 11:29:08;;;;;;;34.92;17.17;;;0.30;96.40;;;;;;6168581;23;20628;-83
2021/01/17 11:31:34;;;;;;;30.73;16.67;;;0.50;94.60;;;;;;6170497;23;20072;-85
2021/01/17 11:34:12;;;;;;;29.48;15.60;;;0.50;94.60;;;;;;6194145;23;20001;-82
2021/01/17 11:36:38;;;;;;;27.27;15.88;;;0.40;94.90;;;;;;6195408;23;20028;-83
2021/01/17 11:39:04;;;;;;;28.42;15.10;;;0.50;95.50;;;;;;6169884;23;20081;-83
2021/01/17 11:41:33;;;;;;;30.15;15.57;;;0.60;94.20;;;;;;6196741;23;20012;-83
2021/01/17 11:44:13;;;;;;;27.52;14.10;;;0.60;93.90;;;;;;6170131;23;20005;-82
2021/01/17 11:46:40;;;;;;;28.52;14.85;;;0.60;94.20;;;;;;6169498;23;20052;-83
2021/01/17 11:49:07;;;;;;;24.95;13.93;;;0.60;93.70;;;;;;6170771;23;20012;-83
2021/01/17 11:51:34;;;;;;;29.42;15.70;;;0.60;93.50;;;;;;6171533;23;20004;-82
2021/01/17 11:54:13;;;;;;;27.98;14.85;;;0.50;94.60;;;;;;6171308;23;20016;-83
2021/01/17 11:56:40;;;;;;;28.52;13.75;;;0.60;93.70;;;;;;6199015;23;20017;-83
2021/01/17 11:59:06;;;;;;;24.83;13.02;;;0.60;93.30;;;;;;6171951;23;20112;-81
2021/01/17 12:01:32;;;;;;;22.42;12.40;;;0.60;93.10;;;;;;6169817;23;20005;-82
2021/01/17 12:04:02;;;;;;;24.77;12.68;;;0.50;93.20;;;;;;6170262;23;20023;-85
2021/01/17 12:06:29;;;;;;;24.30;13.60;;;0.70;99.90;;;;;;6170029;23;20073;-83
2021/01/17 12:09:04;;;;;;;20.63;11.52;;;0.30;93.50;;;;;;6170358;23;20001;-83
2021/01/17 12:11:39;;;;;;;24.30;12.63;;;0.30;93.90;;;;;;6173172;23;20005;-82
2021/01/17 12:14:34;;;;;;;19.55;11.27;;;0.20;93.70;;;;;;6175267;23;20005;-83
2021/01/17 12:17:00;;;;;;;24.30;11.30;;;0.30;93.90;;;;;;6167150;23;20012;-83
2021/01/17 12:19:27;;;;;;;23.35;12.60;;;0.40;93.80;;;;;;6170055;23;20001;-83
2021/01/17 12:22:01;;;;;;;22.95;12.20;;;0.40;94.00;;;;;;6169564;23;20063;-83
2021/01/17 12:24:27;;;;;;;20.88;12.45;;;0.50;93.60;;;;;;6169542;23;20000;-83
2021/01/17 12:26:53;;;;;;;23.13;12.70;;;;;;;;;;6168959;23;20024;-81
2021/01/17 12:29:20;;;;;;;23.30;12.48;;;0.50;92.50;;;;;;6195262;23;20001;-82
2021/01/17 12:31:46;;;;;;;25.48;13.10;;;0.50;93.10;;;;;;6169519;23;20012;-82
2021/01/17 12:34:12;;;;;;;23.17;12.00;;;0.50;93.60;;;;;;6168507;23;20005;-82
2021/01/17 12:36:41;;;;;;;22.27;12.45;;;0.50;93.90;;;;;;6168788;23;20545;-82
2021/01/17 12:39:08;;;;;;;25.35;13.15;;;0.60;94.00;;;;;;6195261;23;20001;-82
2021/01/17 12:41:36;;;;;;;24.45;12.07;;;0.50;94.00;;;;;;6168544;23;20001;-81
2021/01/17 12:44:02;;;;;;;22.23;11.48;;;0.50;94.20;;;;;;6169447;23;20092;-82
2021/01/17 12:46:29;;;;;;;26.30;13.70;;;0.50;93.90;;;;;;6195417;23;20011;-83
2021/01/17 12:48:55;;;;;;;20.02;11.85;;;0.60;94.50;;;;;;6193944;23;20021;-83
2021/01/17 12:51:21;;;;;;;20.23;10.90;;;0.70;94.60;;;;;;6170070;23;20512;-82
2021/01/17 12:53:49;;;;;;;25.55;13.05;;;0.80;97.80;;;;;;6169195;23;20005;-83
2021/01/17 12:56:27;;;;;;;20.98;11.65;;;0.90;97.50;;;;;;6174126;23;20013;-84
2021/01/17 12:58:53;;;;;;;21.52;10.77;;;0.80;97.60;;;;;;6174540;23;20015;-83
2021/01/17 13:01:19;;;;;;;20.27;10.98;;;0.60;94.30;;;;;;6172452;23;20005;-82
2021/01/17 13:03:45;;;;;;;21.92;12.20;;;0.50;94.10;;;;;;6198740;23;20074;-83
2021/01/17 13:06:12;;;;;;;19.13;9.82;;;0.40;94.60;;;;;;6198621;23;20337;-83
2021/01/17 13:08:40;;;;;;;22.35;11.45;;;0.30;95.00;;;;;;6171566;23;20008;-82
2021/01/17 13:11:07;;;;;;;20.88;11.15;;;0.30;95.40;;;;;;6200031;23;20008;-82
2021/01/17 13:13:34;;;;;;;22.13;12.23;;;0.30;95.60;;;;;;6198604;23;20059;-81
2021/01/17 13:16:02;;;;;;;25.77;13.48;;;0.30;96.20;;;;;;6173822;23;20021;-81
2021/01/17 13:18:28;;;;;;;20.23;10.88;;;0.20;96.70;;;;;;6201330;23;20395;-84
2021/01/17 13:20:54;;;;;;;20.15;11.50;;;0.20;96.10;;;;;;6174764;23;20091;-83
2021/01/17 13:23:20;;;;;;;20.10;10.18;;;0.20;96.30;;;;;;6199593;23;20051;-83
2021/01/17 13:25:46;;;;;;;23.35;11.98;;;0.10;97.30;;;;;;6199352;23;20001;-81
2021/01/17 13:28:13;;;;;;;23.20;12.20;;;0.10;97.60;;;;;;6199581;23;20012;-82
2021/01/17 13:30:41;;;;;;;20.20;10.48;;;0.10;97.90;;;;;;6199765;23;20013;-83
2021/01/17 13:33:13;;;;;;;24.23;11.73;;;0.00;98.30;;;;;;6199659;23;20004;-82
2021/01/17 13:35:44;;;;;;;18.52;10.93;;;0.00;98.90;;;;;;6199347;23;19997;-83
2021/01/17 13:38:13;;;;;;;23.98;12.13;;;0.10;99.60;;;;;;6174452;23;20073;-83
2021/01/17 13:40:43;;;;;;;21.73;11.15;;;0.20;99.40;;;;;;6199730;23;20005;-82
2021/01/17 13:43:09;;;;;;;21.95;11.88;;;0.20;98.80;;;;;;6171717;23;20072;-81
2021/01/17 13:45:36;;;;;;;20.55;11.05;;;0.20;98.70;;;;;;6171664;23;20005;-81
2021/01/17 13:48:02;;;;;;;21.48;10.68;;;0.20;98.60;;;;;;6197644;23;20001;-84
2021/01/17 13:50:28;;;;;;;20.42;10.35;;;0.10;98.50;;;;;;6196485;23;20009;-84
2021/01/17 13:52:54;;;;;;;19.23;10.80;;;0.00;99.30;;;;;;6197650;23;19997;-82
2021/01/17 13:55:20;;;;;;;19.95;10.38;;;0.10;99.80;;;;;;6197867;23;20040;-83
2021/01/17 13:57:45;;;;;;;21.60;11.90;;;0.10;99.20;;;;;;6169401;23;20001;-83
2021/01/17 14:00:18;;;;;;;21.13;11.60;;;0.10;99.70;;;;;;6199917;23;20456;-83
2021/01/17 14:02:45;;;;;;;19.50;11.20;;;0.00;98.90;;;;;;6173789;23;20069;-83
2021/01/17 14:05:11;;;;;;;22.08;12.50;;;-0.10;99.30;;;;;;6174426;23;20022;-81
2021/01/17 14:07:38;;;;;;;23.60;11.23;;;0.00;99.90;;;;;;6176460;23;20016;-81
2021/01/17 14:10:05;;;;;;;22.65;11.23;;;0.00;99.70;;;;;;6201476;23;20378;-81
2021/01/17 14:12:31;;;;;;;21.63;11.23;;;0.00;99.90;;;;;;6203566;23;20000;-83
2021/01/17 14:14:57;;;;;;;21.75;11.23;;;0.00;99.90;;;;;;6174810;23;20016;-82
2021/01/17 14:17:23;;;;;;;23.48;10.73;;;0.00;99.90;;;;;;6201502;23;20008;-82
2021/01/17 14:19:49;;;;;;;23.45;12.93;;;0.00;99.90;;;;;;6174649;23;20013;-82
2021/01/17 14:22:16;;;;;;;21.33;11.57;;;0.00;99.90;;;;;;6174654;23;20065;-82
2021/01/17 14:24:42;;;;;;;25.20;14.15;;;0.00;99.90;;;;;;6201092;23;20008;-82
2021/01/17 14:27:09;;;;;;;20.77;11.30;;;0.00;99.90;;;;;;6200898;23;20005;-81
2021/01/17 14:29:39;;;;;;;25.90;15.80;;;-0.10;99.90;;;;;;6199771;23;20070;-83
2021/01/17 14:32:05;;;;;;;17.92;9.82;;;-0.20;99.90;;;;;;6200016;23;20035;-83
2021/01/17 14:34:31;;;;;;;18.45;9.77;;;-0.30;99.90;;;;;;6199127;23;20008;-82
2021/01/17 14:36:57;;;;;;;16.48;8.95;;;-0.40;99.90;;;;;;6198662;23;20271;-81
2021/01/17 14:39:25;;;;;;;13.60;7.75;;;-0.50;99.90;;;;;;6198842;23;20004;-83
2021/01/17 14:41:55;;;;;;;12.63;7.82;;;-0.50;99.90;;;;;;6200382;23;20012;-82
2021/01/17 14:44:21;;;;;;;13.48;7.97;;;-0.50;99.90;;;;;;6172315;23;20005;-83
2021/01/17 14:46:49;;;;;;;12.40;6.95;;;-0.50;99.90;;;;;;6171924;23;20005;-82
2021/01/17 14:49:16;;;;;;;16.75;8.02;;;-0.50;99.90;;;;;;6197907;23;20008;-82
2021/01/17 14:51:42;;;;;;;13.25;6.97;;;-0.50;99.90;;;;;;6171937;23;20001;-82
2021/01/17 14:54:09;;;;;;;10.90;6.43;;;-0.40;99.90;;;;;;6172604;23;20032;-81
2021/01/17 14:56:47;;;;;;;12.43;6.88;;;-0.40;99.90;;;;;;6174275;23;20004;-84
2021/01/17 14:59:15;;;;;;;13.75;6.05;;;-0.40;99.90;;;;;;6205501;23;20005;-79
2021/01/17 15:01:41;;;;;;;10.95;5.65;;;-0.40;99.80;;;;;;6186038;23;20032;-79
2021/01/17 15:04:08;;;;;;;13.43;6.22;;;-0.40;99.70;;;;;;6211541;23;20005;-80
2021/01/17 15:06:33;;;;;;;10.82;6.50;;;-0.40;99.80;;;;;;6212171;23;20382;-82
2021/01/17 15:08:59;;;;;;;15.60;8.25;;;-0.40;99.90;;;;;;6211940;23;20035;-80
2021/01/17 15:11:25;;;;;;;13.48;6.63;;;-0.40;99.90;;;;;;6186187;23;20028;-81
2021/01/17 15:13:53;;;;;;;11.32;6.05;;;-0.40;99.90;;;;;;6212052;23;19997;-81
2021/01/17 15:16:23;;;;;;;12.93;6.70;;;-0.40;99.90;;;;;;6186435;23;20005;-80
2021/01/17 15:18:51;;;;;;;15.45;8.07;;;-0.40;99.90;;;;;;6211705;23;20014;-80
2021/01/17 15:21:17;;;;;;;12.85;7.75;;;-0.40;99.90;;;;;;6186074;23;20028;-81
2021/01/17 15:23:43;;;;;;;18.75;11.57;;;-0.40;99.90;;;;;;6211805;23;19989;-81
2021/01/17 15:26:09;;;;;;;46.35;28.65;;;-0.50;99.90;;;;;;6212761;23;20012;-81
2021/01/17 15:28:35;;;;;;;12.27;8.15;;;-0.50;99.90;;;;;;6212230;23;20009;-81
2021/01/17 15:31:01;;;;;;;29.60;19.40;;;-0.50;99.90;;;;;;6211211;23;20024;-82
2021/01/17 15:33:31;;;;;;;28.67;19.27;;;-0.50;99.90;;;;;;6210921;23;20024;-81
2021/01/17 15:36:02;;;;;;;16.05;10.15;;;-0.60;99.90;;;;;;6212435;23;19997;-80
2021/01/17 15:38:27;;;;;;;14.82;9.23;;;-0.60;99.90;;;;;;6211819;23;20045;-81
2021/01/17 15:40:53;;;;;;;9.90;6.72;;;-0.70;99.90;;;;;;6185106;23;19997;-81
2021/01/17 15:43:19;;;;;;;9.75;5.60;;;-0.70;99.90;;;;;;6212234;23;20052;-82
2021/01/17 15:45:44;;;;;;;11.80;6.78;;;-0.70;99.90;;;;;;6212387;23;20005;-82
2021/01/17 15:48:10;;;;;;;9.88;6.10;;;-0.70;99.90;;;;;;6212271;23;20024;-80
2021/01/17 15:50:36;;;;;;;12.45;6.32;;;-0.70;99.90;;;;;;6212449;23;20016;-82
2021/01/17 15:53:02;;;;;;;10.38;6.18;;;-0.70;99.90;;;;;;6185900;23;19993;-81
2021/01/17 15:55:28;;;;;;;9.57;5.80;;;-0.70;99.90;;;;;;6186390;23;20005;-80
2021/01/17 15:58:00;;;;;;;9.40;5.40;;;-0.70;99.90;;;;;;6211288;23;20050;-82
2021/01/17 17:02:35;;;;;;;33.55;18.67;;;-0.60;99.90;;;;;;6206822;22;20017;-84
2021/01/17 17:05:01;;;;;;;33.33;20.13;;;-0.60;99.90;;;;;;6182248;23;20016;-82
2021/01/17 17:07:26;;;;;;;28.02;17.42;;;-0.60;99.90;;;;;;6185318;23;20068;-82
2021/01/17 17:09:52;;;;;;;17.13;9.75;;;-0.60;99.90;;;;;;6209205;23;19993;-81
2021/01/17 17:12:18;;;;;;;18.73;11.90;;;-0.60;99.90;;;;;;6209599;23;20422;-82
2021/01/17 17:14:44;;;;;;;18.95;9.88;;;-0.60;99.90;;;;;;6206855;23;20001;-80
2021/01/17 17:17:10;;;;;;;18.52;10.93;;;-0.60;99.90;;;;;;6171088;23;20028;-81
2021/01/17 17:19:36;;;;;;;17.75;10.25;;;-0.60;99.90;;;;;;6197178;23;20001;-80
2021/01/17 17:22:01;;;;;;;26.17;12.40;;;-0.60;99.90;;;;;;6196951;23;20008;-80
2021/01/17 17:24:27;;;;;;;24.80;13.52;;;-0.50;99.90;;;;;;6197664;23;20000;-81
2021/01/17 17:26:53;;;;;;;25.83;11.82;;;-0.50;99.90;;;;;;6169362;23;20005;-80
2021/01/17 17:29:19;;;;;;;25.02;12.63;;;-0.50;99.90;;;;;;6196349;23;20005;-81
2021/01/17 17:31:48;;;;;;;23.40;10.95;;;-0.50;99.90;;;;;;6171823;23;20023;-80
2021/01/17 17:34:15;;;;;;;23.67;12.15;;;-0.50;99.90;;;;;;6173703;23;19997;-79
2021/01/17 17:36:44;;;;;;;19.10;10.68;;;-0.50;99.90;;;;;;6201570;23;20109;-81
2021/01/17 17:39:17;;;;;;;18.40;10.93;;;-0.50;99.90;;;;;;6177756;23;20368;-79
2021/01/17 17:41:44;;;;;;;18.35;10.50;;;-0.50;99.90;;;;;;6198145;23;20004;-81
2021/01/17 17:44:13;;;;;;;17.60;10.18;;;-0.50;99.90;;;;;;6197852;23;20077;-79
2021/01/17 17:46:39;;;;;;;20.25;10.65;;;-0.40;99.90;;;;;;6195888;23;20005;-82